Time;durP1;ratioP1;P1;durP2;ratioP2;P2;SDS_P1;SDS_P2;PMS_P1;PMS_P2;Temp;Humidity;BMP_temperature;BMP_pressure;BME280_temperature;BME280_humidity;BME280_pressure;Samples;Min_cycle;Max_cycle;Signal;HPM_P1;HPM_P2
2021/04/19 00:01:46;;;;;;;22.60;20.70;;;8.80;99.90;;;;;;5020128;28;20470;-73
2021/04/19 00:04:12;;;;;;;23.00;21.10;;;8.80;99.90;;;;;;5025195;28;20512;-72
2021/04/19 00:06:42;;;;;;;22.57;20.67;;;8.80;99.90;;;;;;5018026;28;20668;-72
2021/04/19 00:09:09;;;;;;;22.40;20.10;;;8.80;99.90;;;;;;5018686;28;20472;-72
2021/04/19 00:11:36;;;;;;;22.83;20.43;;;8.80;99.90;;;;;;5022855;28;20459;-73
2021/04/19 00:14:04;;;;;;;21.77;19.73;;;8.80;99.90;;;;;;5025136;28;20467;-73
2021/04/19 00:16:30;;;;;;;19.77;17.87;;;8.80;99.90;;;;;;5028545;28;20513;-72
2021/04/19 00:18:56;;;;;;;21.07;19.20;;;8.80;99.90;;;;;;5021903;28;20463;-72
2021/04/19 00:21:23;;;;;;;21.63;19.60;;;8.80;99.90;;;;;;5019317;28;20887;-72
2021/04/19 00:23:50;;;;;;;19.70;18.10;;;8.90;99.90;;;;;;5024879;28;20838;-72
2021/04/19 00:26:16;;;;;;;21.23;19.27;;;8.90;99.90;;;;;;5021092;28;20478;-72
2021/04/19 00:28:44;;;;;;;20.13;18.40;;;9.00;99.90;;;;;;5022637;28;20468;-72
2021/04/19 00:31:11;;;;;;;21.30;19.20;;;9.00;99.90;;;;;;5022028;28;20460;-70
2021/04/19 00:33:37;;;;;;;21.20;19.40;;;9.00;99.90;;;;;;5018776;28;21020;-71
2021/04/19 00:36:04;;;;;;;20.17;18.53;;;9.00;99.90;;;;;;5021892;28;20464;-73
2021/04/19 00:38:31;;;;;;;19.40;17.70;;;9.10;99.90;;;;;;5024297;28;20473;-71
2021/04/19 00:41:00;;;;;;;20.40;18.50;;;9.10;99.90;;;;;;5017260;28;20608;-71
2021/04/19 00:43:27;;;;;;;19.93;17.90;;;9.10;99.90;;;;;;5025336;28;20518;-71
2021/04/19 00:46:02;;;;;;;17.87;16.57;;;9.20;99.90;;;;;;5022195;28;20470;-71
2021/04/19 00:48:28;;;;;;;19.63;17.63;;;9.20;99.90;;;;;;5017923;28;20581;-70
2021/04/19 00:50:55;;;;;;;18.80;17.27;;;9.20;99.90;;;;;;5022692;28;21035;-72
2021/04/19 00:53:23;;;;;;;20.87;17.67;;;9.10;99.90;;;;;;5018770;28;20587;-72
2021/04/19 00:55:50;;;;;;;18.80;17.30;;;9.10;99.90;;;;;;5021697;28;20467;-72
2021/04/19 00:58:18;;;;;;;20.07;18.03;;;9.20;99.90;;;;;;5018912;28;20464;-71
2021/04/19 01:00:45;;;;;;;18.97;16.83;;;9.10;99.90;;;;;;5021101;28;20906;-71
2021/04/19 01:03:14;;;;;;;22.00;18.83;;;9.10;99.90;;;;;;5018940;28;20476;-71
2021/04/19 01:05:41;;;;;;;20.60;17.37;;;9.00;99.90;;;;;;5020302;28;20964;-71
2021/04/19 01:08:08;;;;;;;18.80;17.00;;;9.00;99.90;;;;;;5024783;28;20462;-70
2021/04/19 01:10:34;;;;;;;19.80;18.07;;;9.00;99.90;;;;;;5022827;28;20455;-71
2021/04/19 01:13:01;;;;;;;17.27;15.50;;;9.00;99.90;;;;;;5016503;28;20502;-71
2021/04/19 01:15:27;;;;;;;17.60;16.20;;;9.20;99.90;;;;;;5019551;28;20542;-71
2021/04/19 01:17:54;;;;;;;19.17;17.17;;;9.10;99.90;;;;;;5018416;28;20494;-71
2021/04/19 01:20:23;;;;;;;18.87;17.10;;;9.10;99.90;;;;;;5021784;28;20471;-72
2021/04/19 01:22:52;;;;;;;18.20;16.80;;;9.00;99.90;;;;;;5021249;28;20465;-71
2021/04/19 01:25:22;;;;;;;17.70;16.30;;;9.00;99.90;;;;;;5022469;28;21028;-71
2021/04/19 01:27:50;;;;;;;20.30;16.20;;;9.10;99.90;;;;;;5024748;28;20462;-71
2021/04/19 01:30:18;;;;;;;18.60;16.97;;;9.10;99.90;;;;;;5019927;28;20458;-72
2021/04/19 01:32:45;;;;;;;18.33;16.60;;;9.10;99.90;;;;;;5017796;28;20494;-72
2021/04/19 01:35:13;;;;;;;18.87;16.23;;;9.10;99.90;;;;;;5022066;28;20488;-71
2021/04/19 01:37:40;;;;;;;17.20;15.60;;;9.10;99.90;;;;;;5022130;28;20491;-71
2021/04/19 01:40:10;;;;;;;19.30;17.27;;;9.20;99.90;;;;;;5017735;28;20468;-71
2021/04/19 01:42:37;;;;;;;17.30;16.00;;;9.10;99.90;;;;;;5024606;28;20500;-70
2021/04/19 01:45:04;;;;;;;18.60;16.90;;;9.00;99.90;;;;;;5027630;28;20466;-72
2021/04/19 01:47:30;;;;;;;18.50;16.83;;;9.10;99.90;;;;;;5022149;28;20474;-71
2021/04/19 01:49:57;;;;;;;19.10;17.27;;;9.00;99.90;;;;;;5014751;28;20463;-70
2021/04/19 01:52:24;;;;;;;19.37;17.80;;;9.00;99.90;;;;;;5023345;28;20861;-70
2021/04/19 01:54:50;;;;;;;19.30;17.60;;;8.90;99.90;;;;;;5020186;28;20656;-71
2021/04/19 01:57:18;;;;;;;19.70;17.73;;;8.90;99.90;;;;;;5022559;28;20479;-70
2021/04/19 01:59:45;;;;;;;20.60;18.80;;;8.80;99.90;;;;;;5022047;28;20823;-71
2021/04/19 02:02:19;;;;;;;21.23;19.23;;;8.80;99.90;;;;;;5022670;28;20495;-71
2021/04/19 02:04:56;;;;;;;21.37;19.57;;;8.80;99.90;;;;;;5020047;28;20513;-71
2021/04/19 02:07:40;;;;;;;22.40;20.10;;;8.70;99.90;;;;;;5020828;28;20463;-72
2021/04/19 02:10:13;;;;;;;20.97;19.03;;;8.60;99.90;;;;;;5023224;28;20458;-70
2021/04/19 02:12:48;;;;;;;22.10;20.20;;;8.70;99.90;;;;;;5018961;28;20489;-71
2021/04/19 02:15:19;;;;;;;21.70;19.90;;;8.50;99.90;;;;;;5014057;28;20528;-71
2021/04/19 02:17:50;;;;;;;29.40;21.57;;;8.50;99.90;;;;;;5023777;28;20469;-71
2021/04/19 02:20:28;;;;;;;24.57;21.90;;;8.40;99.90;;;;;;5019500;28;21048;-72
2021/04/19 02:23:00;;;;;;;20.57;18.87;;;8.50;99.90;;;;;;5022493;28;20537;-71
2021/04/19 02:25:31;;;;;;;28.47;21.20;;;8.60;99.90;;;;;;5014746;28;20461;-72
2021/04/19 02:28:02;;;;;;;28.13;21.60;;;8.60;99.90;;;;;;5020989;28;20473;-72
2021/04/19 02:30:38;;;;;;;25.73;19.63;;;8.50;99.90;;;;;;5018255;28;20475;-71
2021/04/19 02:33:11;;;;;;;23.47;20.97;;;8.40;99.90;;;;;;5017902;28;20509;-71
2021/04/19 02:35:40;;;;;;;23.93;21.37;;;8.30;99.90;;;;;;5021482;28;20548;-70
2021/04/19 02:38:09;;;;;;;22.87;20.70;;;8.20;99.90;;;;;;5023950;28;20464;-71
2021/04/19 02:40:37;;;;;;;23.80;21.37;;;8.10;99.90;;;;;;5023529;28;20454;-71
2021/04/19 02:43:06;;;;;;;23.53;21.53;;;8.10;99.90;;;;;;5019784;28;20469;-72
2021/04/19 02:45:33;;;;;;;24.13;21.80;;;7.90;99.90;;;;;;5020629;28;20569;-72
2021/04/19 02:48:01;;;;;;;28.13;22.77;;;7.80;99.90;;;;;;5022755;28;20464;-70
2021/04/19 02:50:30;;;;;;;24.43;22.23;;;7.70;99.90;;;;;;5022380;28;20635;-72
2021/04/19 02:52:59;;;;;;;25.10;22.70;;;7.70;99.90;;;;;;5019726;28;20529;-72
2021/04/19 02:55:28;;;;;;;24.40;21.87;;;7.70;99.90;;;;;;5015888;28;20993;-72
2021/04/19 02:57:58;;;;;;;25.40;22.63;;;7.80;99.90;;;;;;5025170;28;20459;-70
2021/04/19 03:00:29;;;;;;;27.30;24.40;;;7.90;99.90;;;;;;5015704;28;20465;-70
2021/04/19 03:02:59;;;;;;;26.20;23.03;;;7.80;99.90;;;;;;5015099;28;20465;-72
2021/04/19 03:05:29;;;;;;;25.63;23.33;;;7.80;99.90;;;;;;5018482;28;20461;-71
2021/04/19 03:07:59;;;;;;;26.30;23.80;;;7.90;99.90;;;;;;5020484;28;20468;-70
2021/04/19 03:10:28;;;;;;;28.93;24.23;;;7.80;99.90;;;;;;5021792;28;20956;-72
2021/04/19 03:12:57;;;;;;;27.33;24.43;;;7.90;99.90;;;;;;5021282;28;20481;-71
2021/04/19 03:15:29;;;;;;;27.90;24.30;;;7.90;99.90;;;;;;5015149;28;20987;-70
2021/04/19 03:17:58;;;;;;;31.80;25.40;;;7.90;99.90;;;;;;5015259;28;20506;-72
2021/04/19 03:20:28;;;;;;;25.27;22.67;;;7.90;99.90;;;;;;5020255;28;20501;-72
2021/04/19 03:22:55;;;;;;;27.40;24.30;;;7.90;99.90;;;;;;5020475;28;20796;-73
2021/04/19 03:25:24;;;;;;;30.60;23.90;;;7.80;99.90;;;;;;5023379;28;20541;-71
2021/04/19 03:27:55;;;;;;;34.13;25.37;;;7.60;99.90;;;;;;5024061;28;20461;-72
2021/04/19 03:30:23;;;;;;;29.77;25.67;;;7.60;99.90;;;;;;5017965;28;20468;-71
2021/04/19 03:32:52;;;;;;;27.50;24.30;;;7.60;99.90;;;;;;5016601;28;20485;-71
2021/04/19 03:35:23;;;;;;;33.30;24.70;;;7.50;99.90;;;;;;5021112;28;20555;-70
2021/04/19 03:37:50;;;;;;;27.67;24.90;;;7.50;99.90;;;;;;5018015;28;21011;-70
2021/04/19 03:40:21;;;;;;;33.60;26.17;;;7.50;99.90;;;;;;5012242;28;20556;-71
2021/04/19 03:42:52;;;;;;;31.03;25.37;;;7.40;99.90;;;;;;5018176;28;20456;-70
2021/04/19 03:45:19;;;;;;;34.07;28.43;;;7.40;99.90;;;;;;5021767;28;20461;-70
2021/04/19 03:47:48;;;;;;;34.60;27.97;;;7.40;99.90;;;;;;5022447;28;20463;-71
2021/04/19 03:50:17;;;;;;;33.50;29.67;;;7.40;99.90;;;;;;5025166;28;20472;-76
2021/04/19 03:52:49;;;;;;;28.93;26.10;;;7.40;99.90;;;;;;5016390;28;20485;-71
2021/04/19 03:55:16;;;;;;;34.37;30.67;;;7.40;99.90;;;;;;5021867;28;21044;-73
2021/04/19 03:57:46;;;;;;;32.93;29.47;;;7.40;99.90;;;;;;5024562;28;20460;-72
2021/04/19 04:00:16;;;;;;;33.13;29.87;;;7.40;99.90;;;;;;5016589;28;20834;-70
2021/04/19 04:02:45;;;;;;;33.13;29.80;;;7.30;99.90;;;;;;5023581;28;20487;-70
2021/04/19 04:05:13;;;;;;;41.80;29.73;;;7.20;99.90;;;;;;5020209;28;20469;-73
2021/04/19 04:07:41;;;;;;;35.20;31.53;;;7.20;99.90;;;;;;5022127;28;20465;-72
2021/04/19 04:10:10;;;;;;;35.93;32.20;;;7.10;99.90;;;;;;5016391;28;20903;-71
2021/04/19 04:12:36;;;;;;;42.83;33.20;;;7.20;99.90;;;;;;5027650;28;20537;-72
2021/04/19 04:15:05;;;;;;;38.90;34.93;;;7.20;99.90;;;;;;5021507;28;21019;-71
2021/04/19 04:17:32;;;;;;;37.03;33.10;;;7.20;99.90;;;;;;5020191;28;20458;-71
2021/04/19 04:19:59;;;;;;;37.67;33.83;;;7.10;99.90;;;;;;5016118;28;20460;-70
2021/04/19 04:22:25;;;;;;;36.87;33.30;;;7.10;99.90;;;;;;5024465;28;20476;-70
2021/04/19 04:24:53;;;;;;;40.87;34.37;;;7.10;99.90;;;;;;5025202;28;20475;-71
2021/04/19 04:27:19;;;;;;;36.67;32.93;;;7.10;99.90;;;;;;5021443;28;20976;-71
2021/04/19 04:29:46;;;;;;;38.03;34.10;;;7.10;99.90;;;;;;5021474;28;20555;-70
2021/04/19 04:32:13;;;;;;;38.37;34.30;;;7.10;99.90;;;;;;5020907;28;20815;-71
2021/04/19 04:34:39;;;;;;;40.00;35.67;;;7.10;99.90;;;;;;5028149;28;20493;-70
2021/04/19 04:37:07;;;;;;;37.97;34.17;;;7.10;99.90;;;;;;5017494;28;20466;-71
2021/04/19 04:39:33;;;;;;;38.63;34.73;;;7.10;99.90;;;;;;5024724;28;20469;-71
2021/04/19 04:42:02;;;;;;;39.20;35.17;;;7.10;99.90;;;;;;5024231;28;20868;-70
2021/04/19 04:44:34;;;;;;;37.90;34.17;;;7.10;99.90;;;;;;5032321;28;20972;-71
2021/04/19 04:47:09;;;;;;;43.10;35.90;;;7.20;99.90;;;;;;5023416;28;20469;-72
2021/04/19 04:49:40;;;;;;;39.80;35.63;;;7.20;99.90;;;;;;5023661;28;20464;-72
2021/04/19 04:52:08;;;;;;;42.43;37.63;;;7.20;99.90;;;;;;5016174;28;20468;-72
2021/04/19 04:54:38;;;;;;;42.60;38.07;;;7.20;99.90;;;;;;5017085;28;20517;-71
2021/04/19 04:57:07;;;;;;;44.10;39.07;;;7.30;99.90;;;;;;5012601;28;20485;-71
2021/04/19 04:59:34;;;;;;;45.37;40.50;;;7.30;99.90;;;;;;5023119;28;20461;-70
2021/04/19 05:02:00;;;;;;;44.10;39.90;;;7.20;99.90;;;;;;5022734;28;20997;-71
2021/04/19 05:04:29;;;;;;;44.17;39.37;;;7.10;99.90;;;;;;5027216;28;20469;-71
2021/04/19 05:06:56;;;;;;;45.63;39.60;;;7.10;99.90;;;;;;5024393;28;20466;-71
2021/04/19 05:09:23;;;;;;;43.60;39.10;;;7.10;99.90;;;;;;5018992;28;20462;-71
2021/04/19 05:11:50;;;;;;;46.30;39.50;;;6.90;99.90;;;;;;5015439;28;20465;-72
2021/04/19 05:14:17;;;;;;;48.97;42.40;;;7.00;99.90;;;;;;5024249;28;21132;-71
2021/04/19 05:16:44;;;;;;;47.60;41.20;;;7.00;99.90;;;;;;5027486;28;20472;-72
2021/04/19 05:19:11;;;;;;;46.10;40.20;;;6.90;99.90;;;;;;5018360;28;20453;-71
2021/04/19 05:21:37;;;;;;;48.23;41.20;;;6.90;99.90;;;;;;5022235;28;20472;-71
2021/04/19 05:24:04;;;;;;;45.53;40.83;;;7.00;99.90;;;;;;5019227;28;20476;-71
2021/04/19 05:26:31;;;;;;;47.67;42.50;;;7.00;99.90;;;;;;5027827;28;20863;-72
2021/04/19 05:28:57;;;;;;;51.47;42.40;;;7.00;99.90;;;;;;5024157;28;20469;-71
2021/04/19 05:31:25;;;;;;;55.97;43.77;;;7.00;99.90;;;;;;5022215;28;20884;-71
2021/04/19 05:33:55;;;;;;;52.13;42.20;;;7.00;99.90;;;;;;5022413;28;20488;-71
2021/04/19 05:36:26;;;;;;;50.10;44.70;;;6.80;99.90;;;;;;5015189;28;20460;-71
2021/04/19 05:38:53;;;;;;;50.73;43.60;;;6.90;99.90;;;;;;5015505;28;20462;-71
2021/04/19 05:41:21;;;;;;;47.97;43.03;;;6.90;99.90;;;;;;5024666;28;20457;-72
2021/04/19 05:43:48;;;;;;;49.97;44.50;;;6.90;99.90;;;;;;5027058;28;20683;-72
2021/04/19 05:46:16;;;;;;;50.47;44.13;;;6.80;99.90;;;;;;5021160;28;20465;-72
2021/04/19 05:48:44;;;;;;;52.67;44.00;;;6.80;99.90;;;;;;5017012;28;20465;-72
2021/04/19 05:51:17;;;;;;;47.70;42.80;;;6.90;99.90;;;;;;5019556;28;20462;-72
2021/04/19 05:53:44;;;;;;;53.77;45.90;;;6.80;99.90;;;;;;5020646;28;20481;-72
2021/04/19 05:56:19;;;;;;;58.00;46.53;;;6.80;99.90;;;;;;5017289;28;20556;-72
2021/04/19 05:58:50;;;;;;;65.37;47.57;;;6.80;99.90;;;;;;5013630;28;20495;-72
2021/04/19 06:01:20;;;;;;;51.47;45.80;;;6.90;99.90;;;;;;5010358;28;20464;-71
2021/04/19 06:03:54;;;;;;;52.03;46.57;;;6.90;99.90;;;;;;5014345;28;20465;-72
2021/04/19 06:06:29;;;;;;;57.10;46.30;;;6.90;99.90;;;;;;5016172;28;20558;-73
2021/04/19 06:09:03;;;;;;;53.43;47.73;;;6.90;99.90;;;;;;5014797;28;20484;-73
2021/04/19 06:11:38;;;;;;;51.33;45.83;;;6.90;99.90;;;;;;5015350;28;20480;-73
2021/04/19 06:14:08;;;;;;;51.30;45.70;;;6.80;99.90;;;;;;5012800;28;20516;-74
2021/04/19 06:16:38;;;;;;;56.77;48.00;;;6.80;99.90;;;;;;5018295;28;20463;-73
2021/04/19 06:19:06;;;;;;;53.73;47.23;;;6.80;99.90;;;;;;5018389;28;20542;-73
2021/04/19 06:21:33;;;;;;;56.13;47.50;;;6.80;99.90;;;;;;5018839;28;20845;-74
2021/04/19 06:24:03;;;;;;;53.63;47.27;;;6.70;99.90;;;;;;5018612;28;20473;-74
2021/04/19 06:26:30;;;;;;;62.80;50.20;;;6.80;99.90;;;;;;5013870;28;20530;-73
2021/04/19 06:28:57;;;;;;;60.87;48.47;;;6.60;99.90;;;;;;5015319;28;20548;-74
2021/04/19 06:31:24;;;;;;;65.20;49.63;;;6.70;99.90;;;;;;5020386;28;20461;-74
2021/04/19 06:34:04;;;;;;;55.03;49.10;;;6.70;99.90;;;;;;5010980;28;21066;-74
2021/04/19 06:36:33;;;;;;;60.10;48.50;;;6.80;99.90;;;;;;5006237;28;20465;-75
2021/04/19 06:39:00;;;;;;;59.70;48.67;;;6.70;99.90;;;;;;5013848;28;20460;-73
2021/04/19 06:41:27;;;;;;;63.13;50.87;;;6.80;99.90;;;;;;5016364;28;21011;-74
2021/04/19 06:43:56;;;;;;;61.50;50.63;;;6.70;99.90;;;;;;5014792;28;20832;-75
2021/04/19 06:46:26;;;;;;;61.03;49.60;;;6.60;99.90;;;;;;5013652;28;20473;-72
2021/04/19 06:48:53;;;;;;;73.80;50.70;;;6.70;99.90;;;;;;5014163;28;21003;-73
2021/04/19 06:51:20;;;;;;;64.57;51.80;;;6.60;99.90;;;;;;5014918;28;20466;-72
2021/04/19 06:53:50;;;;;;;61.37;50.27;;;6.70;99.90;;;;;;5017115;28;20484;-72
2021/04/19 06:56:19;;;;;;;57.03;49.60;;;6.70;99.90;;;;;;5018522;28;20468;-72
2021/04/19 06:58:48;;;;;;;58.27;52.13;;;6.80;99.90;;;;;;5010926;28;21064;-72
2021/04/19 07:01:19;;;;;;;62.43;51.60;;;6.80;99.90;;;;;;5017203;28;20472;-72
2021/04/19 07:03:48;;;;;;;63.23;53.30;;;6.70;99.90;;;;;;5011344;28;20527;-73
2021/04/19 07:06:16;;;;;;;65.20;51.83;;;6.70;99.90;;;;;;5007678;28;21011;-72
2021/04/19 07:08:47;;;;;;;68.93;55.90;;;6.60;99.90;;;;;;5016524;28;20539;-72
2021/04/19 07:11:20;;;;;;;70.67;52.73;;;6.70;99.90;;;;;;5009097;28;20964;-72
2021/04/19 07:13:48;;;;;;;59.23;50.77;;;6.70;99.90;;;;;;5009067;28;20489;-72
2021/04/19 07:16:14;;;;;;;64.90;49.27;;;6.80;99.90;;;;;;5013063;28;20461;-73
2021/04/19 07:18:40;;;;;;;57.50;46.47;;;6.90;99.90;;;;;;5016813;28;20525;-73
2021/04/19 07:21:07;;;;;;;21.20;19.90;;;6.70;99.90;;;;;;5016508;28;20479;-74
2021/04/19 07:23:36;;;;;;;21.00;19.80;;;6.80;99.90;;;;;;5021107;28;20468;-74
2021/04/19 07:26:04;;;;;;;21.00;19.80;;;6.80;99.90;;;;;;5018242;28;20538;-74
2021/04/19 07:28:36;;;;;;;20.47;19.27;;;6.70;99.90;;;;;;5017615;28;20456;-75
2021/04/19 07:31:03;;;;;;;20.50;19.30;;;6.60;99.90;;;;;;5014730;28;20485;-75
2021/04/19 07:33:32;;;;;;;20.63;19.43;;;6.60;99.90;;;;;;5014361;28;20944;-75
2021/04/19 07:36:08;;;;;;;20.03;18.83;;;6.60;99.90;;;;;;5017589;28;20469;-74
2021/04/19 07:38:36;;;;;;;20.93;19.73;;;6.50;99.90;;;;;;5017789;28;20452;-74
2021/04/19 07:41:03;;;;;;;20.43;19.23;;;6.50;99.90;;;;;;5018903;28;20468;-75
2021/04/19 07:43:37;;;;;;;22.77;21.27;;;6.40;99.90;;;;;;5014528;28;21016;-75
2021/04/19 07:46:07;;;;;;;20.00;18.90;;;6.60;99.90;;;;;;5021593;28;20464;-75
2021/04/19 07:48:37;;;;;;;19.57;18.47;;;6.50;99.90;;;;;;5016046;28;20472;-76
2021/04/19 07:51:29;;;;;;;19.93;18.83;;;6.40;99.90;;;;;;5021240;28;20827;-75
2021/04/19 07:54:20;;;;;;;18.73;17.73;;;6.60;99.90;;;;;;5018677;28;20507;-75
2021/04/19 07:57:05;;;;;;;19.30;18.30;;;6.70;99.90;;;;;;5017741;28;20462;-76
2021/04/19 07:59:36;;;;;;;19.40;18.40;;;6.80;99.90;;;;;;5014327;28;20495;-75
2021/04/19 08:02:04;;;;;;;19.17;18.17;;;6.90;99.90;;;;;;5015941;28;21340;-75
2021/04/19 08:04:32;;;;;;;18.93;17.93;;;7.20;99.90;;;;;;5022464;28;20565;-75
2021/04/19 08:06:59;;;;;;;19.20;18.20;;;7.10;99.90;;;;;;5016465;28;21026;-76
2021/04/19 08:09:26;;;;;;;19.20;18.20;;;7.30;99.90;;;;;;5017006;28;20525;-75
2021/04/19 08:11:57;;;;;;;18.80;17.80;;;7.60;99.90;;;;;;5017601;28;20961;-74
2021/04/19 08:14:27;;;;;;;18.87;17.87;;;7.50;99.90;;;;;;5018518;28;20499;-76
2021/04/19 08:17:11;;;;;;;19.60;18.60;;;7.70;99.90;;;;;;5025687;28;20462;-74
2021/04/19 08:19:40;;;;;;;18.57;17.57;;;7.70;99.90;;;;;;5017038;28;20460;-76
2021/04/19 08:22:18;;;;;;;19.47;18.47;;;7.60;99.90;;;;;;5013720;28;20487;-75
2021/04/19 08:24:45;;;;;;;19.00;18.00;;;7.60;99.90;;;;;;5012606;28;20515;-76
2021/04/19 08:27:19;;;;;;;18.90;17.90;;;7.80;99.90;;;;;;5015897;28;20994;-75
2021/04/19 08:29:47;;;;;;;19.30;18.30;;;7.70;99.90;;;;;;5010710;28;20461;-75
2021/04/19 08:32:15;;;;;;;18.60;17.70;;;7.80;99.90;;;;;;5019763;28;20491;-75
2021/04/19 08:34:42;;;;;;;18.47;17.57;;;7.80;99.90;;;;;;5014146;28;20579;-75
2021/04/19 08:37:12;;;;;;;20.57;19.47;;;7.70;99.90;;;;;;5017893;28;20465;-76
2021/04/19 08:39:40;;;;;;;19.03;18.03;;;7.70;99.90;;;;;;5010361;28;20500;-72
2021/04/19 08:42:10;;;;;;;36.33;34.03;;;7.60;99.90;;;;;;5016850;28;20462;-76
2021/04/19 08:44:36;;;;;;;20.03;18.93;;;7.40;99.90;;;;;;5015144;28;20532;-76
2021/04/19 08:47:05;;;;;;;18.20;17.30;;;7.60;99.90;;;;;;5015342;28;20837;-76
2021/04/19 08:49:32;;;;;;;18.40;17.40;;;7.40;99.90;;;;;;5010169;28;21013;-75
2021/04/19 08:52:00;;;;;;;18.00;17.00;;;7.30;99.90;;;;;;5016547;28;20468;-76
2021/04/19 08:54:27;;;;;;;18.70;17.70;;;7.40;99.90;;;;;;5018797;28;20490;-76
2021/04/19 08:56:54;;;;;;;18.10;17.20;;;7.60;99.90;;;;;;5019812;28;21272;-75
2021/04/19 08:59:22;;;;;;;23.17;22.03;;;7.60;99.90;;;;;;5019458;28;20463;-76
2021/04/19 09:01:51;;;;;;;18.03;17.13;;;7.80;99.90;;;;;;5022621;28;20460;-75
2021/04/19 09:04:22;;;;;;;18.47;17.47;;;7.50;99.90;;;;;;5011130;28;20458;-75
2021/04/19 09:06:51;;;;;;;17.00;16.20;;;7.50;99.90;;;;;;5016940;28;20880;-75
2021/04/19 09:09:35;;;;;;;16.90;16.10;;;7.50;99.90;;;;;;5013630;28;20461;-75
2021/04/19 09:12:22;;;;;;;17.60;16.70;;;7.60;99.90;;;;;;5017473;28;20545;-75
2021/04/19 09:14:50;;;;;;;17.70;16.80;;;7.80;99.90;;;;;;5018266;28;20521;-73
2021/04/19 09:17:25;;;;;;;18.30;17.40;;;7.70;99.90;;;;;;5012022;28;20461;-73
2021/04/19 09:19:57;;;;;;;17.83;16.93;;;7.60;99.90;;;;;;5022561;28;20463;-74
2021/04/19 09:22:27;;;;;;;18.50;17.50;;;7.40;99.90;;;;;;5023905;28;20980;-73
2021/04/19 09:25:00;;;;;;;18.77;17.77;;;7.50;99.90;;;;;;5017489;28;20489;-73
2021/04/19 09:27:44;;;;;;;17.93;17.03;;;7.70;99.90;;;;;;5015063;28;20466;-75
2021/04/19 09:30:31;;;;;;;17.77;16.87;;;7.60;99.90;;;;;;5016343;28;20551;-73
2021/04/19 09:33:22;;;;;;;16.93;16.13;;;7.90;99.90;;;;;;5019989;28;20502;-74
2021/04/19 09:35:49;;;;;;;16.47;15.67;;;7.90;99.90;;;;;;5012106;28;20637;-73
2021/04/19 09:38:53;;;;;;;16.57;15.77;;;7.90;99.90;;;;;;5014858;28;20556;-74
2021/04/19 09:41:22;;;;;;;18.23;17.33;;;8.00;99.90;;;;;;5013020;28;20469;-73
2021/04/19 09:43:54;;;;;;;16.80;16.00;;;8.00;99.90;;;;;;5013343;28;20551;-73
2021/04/19 09:46:28;;;;;;;15.57;14.87;;;8.10;99.90;;;;;;5008815;28;20469;-72
2021/04/19 09:48:58;;;;;;;18.03;17.10;;;8.20;99.90;;;;;;5011111;28;20550;-74
2021/04/19 09:51:29;;;;;;;16.00;15.30;;;8.20;99.90;;;;;;5016911;28;20516;-73
2021/04/19 09:53:59;;;;;;;15.13;14.43;;;8.40;99.90;;;;;;5014153;28;20490;-73
2021/04/19 09:56:28;;;;;;;15.90;15.20;;;8.60;99.90;;;;;;5017991;28;20832;-74
2021/04/19 09:58:54;;;;;;;15.73;15.03;;;8.50;99.90;;;;;;5020153;28;20491;-73
2021/04/19 10:01:22;;;;;;;15.23;14.53;;;8.70;99.90;;;;;;5013764;28;20838;-74
2021/04/19 10:03:51;;;;;;;15.47;14.77;;;8.80;99.90;;;;;;5022672;28;20456;-73
2021/04/19 10:06:22;;;;;;;16.70;15.90;;;8.70;99.90;;;;;;5016166;28;20468;-75
2021/04/19 10:08:50;;;;;;;16.30;15.50;;;9.00;99.90;;;;;;5018824;28;20468;-75
2021/04/19 10:11:22;;;;;;;16.33;15.53;;;9.00;99.90;;;;;;5015800;28;20873;-72
2021/04/19 10:13:49;;;;;;;16.57;15.77;;;9.20;99.90;;;;;;5015422;28;20483;-72
2021/04/19 10:16:17;;;;;;;15.97;15.17;;;9.70;99.90;;;;;;5019219;28;20526;-72
2021/04/19 10:18:48;;;;;;;16.63;15.83;;;9.90;99.90;;;;;;5011154;28;20894;-73
2021/04/19 10:21:27;;;;;;;16.60;15.80;;;10.00;99.90;;;;;;5015542;28;20461;-72
2021/04/19 10:23:54;;;;;;;16.90;16.10;;;10.20;99.90;;;;;;5017258;28;20559;-73
2021/04/19 10:26:31;;;;;;;16.37;15.57;;;10.60;99.90;;;;;;5017588;28;20471;-72
2021/04/19 10:28:58;;;;;;;16.37;15.57;;;10.90;99.90;;;;;;5013020;28;20638;-73
2021/04/19 10:31:24;;;;;;;17.60;16.70;;;11.20;99.90;;;;;;5022188;28;20544;-73
2021/04/19 10:33:53;;;;;;;18.07;17.17;;;11.10;99.90;;;;;;5011766;28;20497;-73
2021/04/19 10:36:21;;;;;;;20.00;18.80;;;11.40;99.90;;;;;;5016254;28;20970;-72
2021/04/19 10:38:50;;;;;;;50.47;45.27;;;11.60;99.90;;;;;;5012004;28;20477;-72
2021/04/19 10:41:28;;;;;;;51.23;45.73;;;11.60;99.90;;;;;;5015088;28;20595;-74
2021/04/19 10:43:55;;;;;;;49.73;44.40;;;11.80;99.90;;;;;;5006753;28;20492;-73
2021/04/19 10:46:24;;;;;;;52.57;45.70;;;12.00;99.90;;;;;;5012660;28;20464;-72
2021/04/19 10:48:54;;;;;;;47.03;42.00;;;12.30;99.90;;;;;;5014255;28;20976;-72
2021/04/19 10:51:23;;;;;;;47.43;42.60;;;12.40;99.90;;;;;;5015190;28;20924;-72
2021/04/19 10:53:49;;;;;;;47.03;42.10;;;12.10;99.90;;;;;;5016860;28;20489;-72
2021/04/19 10:56:21;;;;;;;47.40;43.00;;;12.10;99.90;;;;;;5013921;28;20531;-72
2021/04/19 10:58:50;;;;;;;46.27;41.57;;;12.30;99.90;;;;;;5018959;28;20474;-72
2021/04/19 11:01:25;;;;;;;44.30;40.13;;;12.80;99.90;;;;;;5017803;28;20469;-72
2021/04/19 11:03:53;;;;;;;44.67;40.20;;;13.60;99.90;;;;;;5010305;28;20468;-73
2021/04/19 11:06:20;;;;;;;45.73;41.30;;;14.20;99.90;;;;;;5019388;28;20465;-72
2021/04/19 11:08:51;;;;;;;43.13;39.07;;;14.50;99.90;;;;;;5012479;28;21003;-73
2021/04/19 11:11:40;;;;;;;44.30;40.00;;;14.60;99.90;;;;;;5015779;28;20976;-74
2021/04/19 11:14:09;;;;;;;43.93;39.70;;;14.60;99.90;;;;;;5008627;28;20571;-73
2021/04/19 11:16:36;;;;;;;46.37;41.47;;;14.00;99.90;;;;;;5014001;28;20465;-75
2021/04/19 11:19:04;;;;;;;43.37;39.10;;;14.00;99.90;;;;;;5015207;28;20471;-73
2021/04/19 11:21:32;;;;;;;43.67;39.67;;;14.50;99.90;;;;;;5016853;28;20897;-73
2021/04/19 11:24:08;;;;;;;44.63;40.20;;;14.50;99.90;;;;;;5017560;28;20466;-72
2021/04/19 11:26:35;;;;;;;47.40;42.90;;;14.20;99.90;;;;;;5015436;28;20467;-75
2021/04/19 11:29:01;;;;;;;43.90;39.90;;;14.30;99.90;;;;;;5018295;28;20464;-76
2021/04/19 11:31:40;;;;;;;47.57;40.50;;;14.30;99.90;;;;;;5012550;28;20494;-73
2021/04/19 11:34:11;;;;;;;43.40;38.83;;;15.00;99.90;;;;;;5018654;28;20512;-73
2021/04/19 11:36:41;;;;;;;45.30;41.00;;;15.10;99.90;;;;;;5016323;28;20480;-73
2021/04/19 11:39:12;;;;;;;43.40;39.40;;;15.60;99.90;;;;;;5015716;28;20466;-74
2021/04/19 11:41:39;;;;;;;43.27;39.07;;;16.30;99.90;;;;;;5014203;28;20459;-74
2021/04/19 11:44:06;;;;;;;41.30;37.30;;;16.30;99.90;;;;;;5013840;28;20845;-76
2021/04/19 11:46:33;;;;;;;45.43;37.80;;;16.20;99.90;;;;;;5019959;28;20464;-74
2021/04/19 11:49:00;;;;;;;42.10;38.10;;;15.80;99.90;;;;;;5014163;28;20879;-74
2021/04/19 11:51:26;;;;;;;39.80;35.90;;;15.70;99.90;;;;;;5012023;28;20461;-74
2021/04/19 11:53:54;;;;;;;39.77;36.03;;;15.90;99.90;;;;;;5014310;28;20524;-75
2021/04/19 11:56:21;;;;;;;37.87;33.93;;;16.40;99.90;;;;;;5011316;28;20564;-75
2021/04/19 11:58:49;;;;;;;38.90;35.40;;;16.90;99.90;;;;;;5015390;28;21027;-75
2021/04/19 12:01:17;;;;;;;38.93;35.30;;;16.60;99.90;;;;;;5018594;28;20466;-74
2021/04/19 12:03:44;;;;;;;35.77;32.63;;;16.70;99.90;;;;;;5018137;28;20476;-74
2021/04/19 12:06:13;;;;;;;37.70;33.83;;;16.90;99.90;;;;;;5016795;28;20492;-74
2021/04/19 12:08:41;;;;;;;36.60;33.20;;;16.50;99.90;;;;;;5015236;28;20465;-74
2021/04/19 12:11:08;;;;;;;38.20;34.30;;;16.20;99.90;;;;;;5012805;28;20503;-75
2021/04/19 12:13:34;;;;;;;37.63;34.13;;;16.10;99.90;;;;;;5012813;28;20532;-74
2021/04/19 12:16:01;;;;;;;38.03;34.40;;;16.10;99.90;;;;;;5021773;28;21112;-74
2021/04/19 12:18:28;;;;;;;41.23;37.03;;;15.30;99.90;;;;;;5019410;28;20469;-73
2021/04/19 12:20:55;;;;;;;37.07;33.67;;;14.50;99.90;;;;;;5019097;28;20466;-75
2021/04/19 12:23:22;;;;;;;37.77;34.27;;;15.20;99.90;;;;;;5022726;28;20527;-75
2021/04/19 12:25:52;;;;;;;39.13;35.13;;;15.00;99.90;;;;;;5013839;28;20461;-74
2021/04/19 12:28:19;;;;;;;39.50;35.33;;;14.20;99.90;;;;;;5018234;28;20519;-75
2021/04/19 12:30:45;;;;;;;39.57;35.30;;;14.20;99.90;;;;;;5012603;28;20460;-74
2021/04/19 12:33:12;;;;;;;37.83;34.13;;;15.00;99.90;;;;;;5018776;28;20492;-74
2021/04/19 12:35:38;;;;;;;37.80;33.67;;;15.60;99.90;;;;;;5017606;28;20481;-74
2021/04/19 12:38:04;;;;;;;37.17;33.80;;;15.50;99.90;;;;;;5016411;28;20477;-74
2021/04/19 12:40:32;;;;;;;35.77;32.60;;;15.20;99.90;;;;;;5018322;28;20487;-75
2021/04/19 12:42:59;;;;;;;35.50;31.83;;;15.30;99.90;;;;;;5018313;28;20506;-74
2021/04/19 12:45:31;;;;;;;35.23;32.23;;;15.20;99.90;;;;;;5012628;28;20462;-75
2021/04/19 12:47:58;;;;;;;36.03;33.03;;;15.50;99.90;;;;;;5017544;28;20478;-74